Time;durP1;ratioP1;P1;durP2;ratioP2;P2;SDS_P1;SDS_P2;PMS_P1;PMS_P2;Temp;Humidity;BMP_temperature;BMP_pressure;BME280_temperature;BME280_humidity;BME280_pressure;Samples;Min_cycle;Max_cycle;Signal;HPM_P1;HPM_P2
2022/07/18 00:01:44;;;;;;;6.93;1.97;;;18.10;70.20;;;;;;4946908;29;20359;-75
2022/07/18 00:04:10;;;;;;;4.73;1.87;;;18.00;74.90;;;;;;4962902;29;20310;-74
2022/07/18 00:06:35;;;;;;;4.37;1.83;;;18.10;75.60;;;;;;4947230;29;20334;-74
2022/07/18 00:09:02;;;;;;;5.43;1.97;;;17.90;60.00;;;;;;4964176;28;20034;-74
2022/07/18 00:11:28;;;;;;;3.75;1.60;;;17.80;60.20;;;;;;4962851;29;20066;-75
2022/07/18 00:13:53;;;;;;;4.80;1.80;;;17.90;60.00;;;;;;4963814;28;20027;-74
2022/07/18 00:16:19;;;;;;;3.83;2.03;;;17.80;60.40;;;;;;4962821;29;20095;-75
2022/07/18 00:18:45;;;;;;;5.00;1.70;;;17.70;60.70;;;;;;4962630;29;20031;-74
2022/07/18 00:21:11;;;;;;;4.57;1.90;;;17.70;60.90;;;;;;4946823;29;20030;-74
2022/07/18 00:23:36;;;;;;;3.23;1.97;;;17.70;61.70;;;;;;4945706;29;20089;-75
2022/07/18 00:26:03;;;;;;;7.70;1.60;;;17.70;61.70;;;;;;4946658;29;20105;-74
2022/07/18 00:28:28;;;;;;;6.70;1.90;;;17.60;61.70;;;;;;4972851;28;20057;-74
2022/07/18 00:30:54;;;;;;;3.03;1.37;;;17.60;62.20;;;;;;4965834;28;20026;-74
2022/07/18 00:33:20;;;;;;;3.57;1.50;;;17.50;62.60;;;;;;4981231;28;20089;-74
2022/07/18 00:35:46;;;;;;;6.23;1.40;;;17.50;62.00;;;;;;4981832;28;20026;-74
2022/07/18 00:38:12;;;;;;;1.87;1.27;;;17.40;62.10;;;;;;4981839;28;20023;-75
2022/07/18 00:40:37;;;;;;;3.23;1.63;;;17.40;62.30;;;;;;4981658;28;20022;-74
2022/07/18 00:43:03;;;;;;;3.70;1.70;;;17.30;62.30;;;;;;4981471;28;20227;-75
2022/07/18 00:45:29;;;;;;;2.73;1.60;;;17.20;62.70;;;;;;4981749;28;20162;-74
2022/07/18 00:47:55;;;;;;;3.07;1.60;;;17.20;63.10;;;;;;4965323;28;20033;-74
2022/07/18 00:50:21;;;;;;;1.70;1.20;;;17.10;63.70;;;;;;4981710;28;20026;-75
2022/07/18 00:52:47;;;;;;;4.80;1.45;;;17.10;63.70;;;;;;4965132;28;20023;-75
2022/07/18 00:55:13;;;;;;;3.20;1.70;;;17.10;64.10;;;;;;4981557;28;20030;-74
2022/07/18 00:57:39;;;;;;;12.87;2.30;;;17.10;64.30;;;;;;4981474;28;20088;-74
2022/07/18 01:02:55;;;;;;;2.35;1.45;;;17.00;64.30;;;;;;4967320;28;20133;-75
2022/07/18 01:05:21;;;;;;;4.40;1.70;;;16.90;64.50;;;;;;4981372;28;20073;-75
2022/07/18 01:07:47;;;;;;;2.80;1.73;;;16.90;64.90;;;;;;4965177;28;20513;-75
2022/07/18 01:10:13;;;;;;;3.27;1.57;;;16.90;64.70;;;;;;4981432;28;20022;-74
2022/07/18 01:12:38;;;;;;;4.73;1.67;;;16.90;64.60;;;;;;4981114;28;20176;-74
2022/07/18 01:15:05;;;;;;;4.50;1.67;;;16.80;64.90;;;;;;4965145;28;20321;-76
2022/07/18 01:17:31;;;;;;;2.88;1.45;;;16.80;65.50;;;;;;4964995;28;20026;-75
2022/07/18 01:19:57;;;;;;;4.77;1.30;;;16.70;64.90;;;;;;4981342;28;20038;-75
2022/07/18 01:22:23;;;;;;;2.73;1.30;;;16.70;65.10;;;;;;4981263;28;20207;-75
2022/07/18 01:24:49;;;;;;;2.43;1.53;;;16.70;64.90;;;;;;4981079;28;20035;-74
2022/07/18 01:27:16;;;;;;;3.73;1.47;;;16.60;65.40;;;;;;4980811;28;20031;-74
2022/07/18 01:29:43;;;;;;;2.80;1.55;;;16.60;65.30;;;;;;4981367;28;20302;-75
2022/07/18 01:32:09;;;;;;;1.83;1.38;;;16.60;65.50;;;;;;4980903;28;20174;-75
2022/07/18 01:34:35;;;;;;;2.17;1.43;;;16.60;65.50;;;;;;4981768;28;20174;-75
2022/07/18 01:37:01;;;;;;;2.15;1.40;;;16.60;65.30;;;;;;4985218;28;20023;-75
2022/07/18 01:39:27;;;;;;;2.93;1.40;;;16.50;65.80;;;;;;4985122;28;20037;-75
2022/07/18 01:42:01;;;;;;;3.10;1.17;;;16.50;65.70;;;;;;4985019;28;20033;-75
2022/07/18 01:44:27;;;;;;;2.42;1.35;;;16.50;66.50;;;;;;4984707;28;20026;-75
2022/07/18 01:46:53;;;;;;;1.17;1.00;;;16.40;65.90;;;;;;4984891;28;20026;-74
2022/07/18 01:49:19;;;;;;;3.30;1.30;;;16.40;66.30;;;;;;4968648;28;20050;-75
2022/07/18 01:51:49;;;;;;;3.13;1.50;;;16.40;66.70;;;;;;4984780;28;20115;-75
2022/07/18 01:54:15;;;;;;;1.83;1.20;;;16.40;67.80;;;;;;4984607;28;20058;-75
2022/07/18 01:56:41;;;;;;;3.03;1.50;;;16.30;67.60;;;;;;4984778;28;20023;-75
2022/07/18 01:59:07;;;;;;;2.30;1.73;;;16.30;68.00;;;;;;4984671;28;20046;-75
2022/07/18 02:01:32;;;;;;;4.37;1.47;;;16.20;68.10;;;;;;4984117;28;20321;-75
2022/07/18 02:03:58;;;;;;;3.77;1.63;;;16.20;68.20;;;;;;4984218;28;20062;-74
2022/07/18 02:06:24;;;;;;;4.20;1.57;;;16.20;69.30;;;;;;4984673;28;20026;-75
2022/07/18 02:08:50;;;;;;;3.77;1.70;;;16.10;69.80;;;;;;4984555;28;20086;-75
2022/07/18 02:11:15;;;;;;;2.10;1.20;;;16.00;69.00;;;;;;4968335;28;20019;-75
2022/07/18 02:13:41;;;;;;;1.77;1.33;;;16.00;69.20;;;;;;4984212;28;20027;-75
2022/07/18 02:16:07;;;;;;;3.43;1.50;;;16.00;69.70;;;;;;4984349;28;20026;-75
2022/07/18 02:18:33;;;;;;;3.97;1.83;;;15.90;70.50;;;;;;4984277;28;20026;-75
2022/07/18 02:21:00;;;;;;;4.70;1.73;;;15.90;70.10;;;;;;4985632;28;20030;-75
2022/07/18 02:23:26;;;;;;;3.17;1.33;;;15.90;70.70;;;;;;4983968;28;20026;-75
2022/07/18 02:25:51;;;;;;;1.93;1.30;;;15.90;70.70;;;;;;4984196;28;20023;-75
2022/07/18 02:28:17;;;;;;;2.57;1.47;;;15.80;70.70;;;;;;4984057;28;20608;-75
2022/07/18 02:30:43;;;;;;;2.90;1.67;;;15.80;71.30;;;;;;4984181;28;20382;-75
2022/07/18 02:33:09;;;;;;;2.63;1.50;;;15.80;70.70;;;;;;5012234;23;20045;-86
2022/07/18 02:35:34;;;;;;;3.80;1.53;;;15.80;70.90;;;;;;4986157;28;20018;-86
2022/07/18 02:38:00;;;;;;;3.20;1.50;;;15.70;70.50;;;;;;4986006;28;20029;-87
2022/07/18 02:40:26;;;;;;;3.13;1.53;;;15.70;71.10;;;;;;4969900;28;20081;-86
2022/07/18 02:42:52;;;;;;;2.43;1.63;;;15.70;70.90;;;;;;4985644;28;20022;-87
2022/07/18 02:45:18;;;;;;;1.83;1.47;;;15.60;70.70;;;;;;4985778;28;20023;-86
2022/07/18 02:47:43;;;;;;;4.50;1.63;;;15.60;71.00;;;;;;4984650;28;20046;-86
2022/07/18 02:50:09;;;;;;;4.57;1.63;;;15.50;70.80;;;;;;4985902;28;20026;-86
2022/07/18 02:52:35;;;;;;;3.30;1.85;;;15.50;70.30;;;;;;4969249;28;20019;-86
2022/07/18 02:55:01;;;;;;;2.50;1.73;;;15.50;70.40;;;;;;4985653;28;20336;-86
2022/07/18 02:57:27;;;;;;;4.57;1.75;;;15.40;70.20;;;;;;4969625;28;20022;-86
2022/07/18 02:59:53;;;;;;;2.35;1.50;;;15.40;70.80;;;;;;4985624;28;20023;-86
2022/07/18 03:02:19;;;;;;;3.70;1.67;;;15.40;70.50;;;;;;4985076;28;20077;-86
2022/07/18 03:04:45;;;;;;;3.33;1.63;;;15.30;70.70;;;;;;4985297;28;20030;-86
2022/07/18 03:07:10;;;;;;;1.63;1.40;;;15.30;71.20;;;;;;4985525;28;20373;-86
2022/07/18 03:09:36;;;;;;;3.00;1.55;;;15.30;71.30;;;;;;4985534;28;20054;-85
2022/07/18 03:12:02;;;;;;;4.70;1.50;;;15.30;71.20;;;;;;4969103;28;20038;-86
2022/07/18 03:14:28;;;;;;;5.68;1.70;;;15.30;71.90;;;;;;4969031;28;20018;-86
2022/07/18 03:16:54;;;;;;;4.30;1.92;;;15.30;71.10;;;;;;4985245;28;20090;-86
2022/07/18 03:19:20;;;;;;;3.00;1.37;;;15.20;70.90;;;;;;4969159;28;20022;-85
2022/07/18 03:21:46;;;;;;;4.37;1.60;;;15.20;71.00;;;;;;4968999;28;20023;-86
2022/07/18 03:24:13;;;;;;;2.33;1.50;;;15.10;71.00;;;;;;4968795;28;20285;-86
2022/07/18 03:26:39;;;;;;;5.65;1.60;;;15.10;71.30;;;;;;4985270;28;20022;-86
2022/07/18 03:29:05;;;;;;;5.10;1.87;;;15.10;71.60;;;;;;4984960;28;20046;-87
2022/07/18 03:31:31;;;;;;;4.82;1.65;;;15.10;73.10;;;;;;4984912;28;20305;-86
2022/07/18 03:33:57;;;;;;;4.57;1.57;;;15.10;75.80;;;;;;4984299;28;20348;-86
2022/07/18 03:36:22;;;;;;;4.87;1.63;;;15.10;77.40;;;;;;4984791;28;20054;-86
2022/07/18 03:38:48;;;;;;;2.77;1.63;;;15.00;78.80;;;;;;4984953;28;20145;-86
2022/07/18 03:41:14;;;;;;;2.47;1.83;;;15.00;79.30;;;;;;4985303;28;20249;-85
2022/07/18 03:43:40;;;;;;;2.83;1.57;;;15.00;79.20;;;;;;4984642;28;20022;-85
2022/07/18 03:46:06;;;;;;;3.13;1.90;;;15.00;77.80;;;;;;4984659;28;20023;-86
2022/07/18 03:48:32;;;;;;;4.95;1.38;;;15.00;76.80;;;;;;4968326;28;20089;-86
2022/07/18 03:50:58;;;;;;;5.60;1.93;;;15.00;76.80;;;;;;4984726;28;20078;-86
2022/07/18 03:53:24;;;;;;;4.82;1.92;;;15.00;77.00;;;;;;4967994;28;20070;-86
2022/07/18 03:55:50;;;;;;;4.63;2.22;;;15.00;77.50;;;;;;4968354;28;20022;-86
2022/07/18 03:58:16;;;;;;;4.67;2.30;;;15.00;77.30;;;;;;4968419;28;20025;-86
2022/07/18 04:00:42;;;;;;;5.03;2.33;;;14.90;77.90;;;;;;4984623;28;20032;-86
2022/07/18 04:03:07;;;;;;;4.30;2.17;;;14.90;78.60;;;;;;4984227;28;20245;-86
2022/07/18 04:05:33;;;;;;;7.17;1.87;;;14.90;79.40;;;;;;4968166;28;20077;-86
2022/07/18 04:07:59;;;;;;;4.03;2.47;;;14.90;80.00;;;;;;4967964;28;20114;-86
2022/07/18 04:10:25;;;;;;;6.03;1.90;;;14.80;80.30;;;;;;4984491;28;20019;-86
2022/07/18 04:12:52;;;;;;;8.73;2.83;;;14.90;80.40;;;;;;4967781;28;20018;-85
2022/07/18 04:15:19;;;;;;;6.88;2.08;;;14.80;80.60;;;;;;4984033;28;20065;-85
2022/07/18 04:17:45;;;;;;;4.40;2.30;;;14.90;80.90;;;;;;4983808;28;20038;-85
2022/07/18 04:20:11;;;;;;;3.37;1.83;;;14.90;81.30;;;;;;4968002;28;20372;-85
2022/07/18 04:23:05;;;;;;;6.93;2.27;;;14.90;80.50;;;;;;4983960;28;20023;-77
2022/07/18 04:25:39;;;;;;;4.80;2.38;;;14.90;79.80;;;;;;4983711;28;20282;-76
2022/07/18 04:28:05;;;;;;;4.40;1.70;;;15.00;79.40;;;;;;4982763;28;20045;-76
2022/07/18 04:30:31;;;;;;;3.97;2.17;;;14.90;78.90;;;;;;4983284;28;20030;-76
2022/07/18 04:32:57;;;;;;;3.08;1.83;;;14.90;78.00;;;;;;4982596;28;20042;-76
2022/07/18 04:35:23;;;;;;;3.30;2.00;;;14.90;77.90;;;;;;4967000;28;20069;-76
2022/07/18 04:37:49;;;;;;;4.72;2.00;;;14.90;78.30;;;;;;4983158;28;20218;-76
2022/07/18 04:40:15;;;;;;;5.00;1.92;;;15.00;78.20;;;;;;4983148;28;20027;-72
2022/07/18 04:42:41;;;;;;;4.03;1.50;;;15.00;78.90;;;;;;4982751;28;20086;-72
2022/07/18 04:45:07;;;;;;;3.65;1.80;;;15.00;78.60;;;;;;4983971;28;20027;-72
2022/07/18 04:47:33;;;;;;;4.72;2.28;;;15.10;79.00;;;;;;4983757;28;20033;-72
2022/07/18 04:49:59;;;;;;;4.80;2.07;;;15.10;79.20;;;;;;4984003;28;20086;-72
2022/07/18 04:52:25;;;;;;;3.90;2.40;;;15.10;78.10;;;;;;4983936;28;20034;-72
2022/07/18 04:54:50;;;;;;;4.20;2.03;;;15.20;77.50;;;;;;4983746;28;20023;-72
2022/07/18 04:57:16;;;;;;;4.77;1.77;;;15.20;75.90;;;;;;4983979;28;20018;-72
2022/07/18 04:59:42;;;;;;;3.95;1.70;;;15.30;75.60;;;;;;4983857;28;20028;-73
2022/07/18 05:02:09;;;;;;;5.00;1.30;;;15.30;74.80;;;;;;4983577;28;20033;-72
2022/07/18 05:04:35;;;;;;;2.80;1.55;;;15.40;74.10;;;;;;4982442;28;20022;-72
2022/07/18 05:07:01;;;;;;;4.60;1.63;;;15.40;73.10;;;;;;4982623;28;20030;-72
2022/07/18 05:09:27;;;;;;;4.17;1.30;;;15.50;72.70;;;;;;4982289;28;20023;-72
2022/07/18 05:11:53;;;;;;;7.00;2.40;;;15.50;71.80;;;;;;4983606;28;20057;-72
2022/07/18 05:14:18;;;;;;;5.63;2.10;;;15.50;70.00;;;;;;4983173;28;20049;-72
2022/07/18 05:16:44;;;;;;;6.40;1.70;;;15.50;70.20;;;;;;4983712;28;20026;-72
2022/07/18 05:19:10;;;;;;;4.43;1.97;;;15.60;70.40;;;;;;4983527;28;20087;-72
2022/07/18 05:21:35;;;;;;;2.47;1.47;;;15.70;70.20;;;;;;4983613;28;20027;-72
2022/07/18 05:24:01;;;;;;;7.63;1.83;;;15.70;69.70;;;;;;4983264;28;20026;-72
2022/07/18 05:26:27;;;;;;;3.17;1.80;;;15.80;68.60;;;;;;4983751;28;20023;-73
2022/07/18 05:28:53;;;;;;;6.97;1.60;;;15.80;67.80;;;;;;4983594;28;20023;-72
2022/07/18 05:31:18;;;;;;;5.23;1.70;;;15.80;66.90;;;;;;4984204;28;20026;-73
2022/07/18 05:33:44;;;;;;;7.75;2.25;;;15.70;66.60;;;;;;4983272;28;20210;-73
2022/07/18 05:36:10;;;;;;;2.53;1.80;;;15.80;67.10;;;;;;4984094;28;20321;-76
2022/07/18 05:38:36;;;;;;;9.83;1.93;;;15.80;67.40;;;;;;4982705;28;20262;-76
2022/07/18 05:41:01;;;;;;;4.93;1.60;;;15.90;67.40;;;;;;4966614;28;20066;-76
2022/07/18 05:43:29;;;;;;;5.38;2.22;;;15.90;67.40;;;;;;4982246;28;20094;-76
2022/07/18 05:45:54;;;;;;;2.47;1.57;;;16.00;67.00;;;;;;4982531;28;20214;-77
2022/07/18 05:48:21;;;;;;;2.60;1.20;;;16.10;66.60;;;;;;4984126;28;20073;-84
2022/07/18 05:50:47;;;;;;;3.65;1.60;;;16.10;66.60;;;;;;4983818;28;20352;-83
2022/07/18 05:53:13;;;;;;;4.43;2.07;;;16.20;67.40;;;;;;4983498;28;20031;-83
2022/07/18 05:55:38;;;;;;;6.03;1.73;;;16.30;67.00;;;;;;4983907;28;20261;-84
2022/07/18 05:58:04;;;;;;;4.73;1.47;;;16.30;66.30;;;;;;4967315;28;20053;-83
2022/07/18 06:00:30;;;;;;;4.90;1.73;;;16.40;66.30;;;;;;4983247;28;20344;-84
2022/07/18 06:02:56;;;;;;;4.75;1.83;;;16.50;65.70;;;;;;4950869;28;20077;-83
2022/07/18 06:05:23;;;;;;;4.33;1.40;;;16.60;66.10;;;;;;4966339;28;20022;-85
2022/07/18 06:07:49;;;;;;;;;;;16.70;66.70;;;;;;4984021;28;20026;-86
2022/07/18 06:10:15;;;;;;;2.95;1.70;;;16.70;67.30;;;;;;4969512;28;19906;-87
2022/07/18 06:12:40;;;;;;;2.97;1.60;;;16.80;68.70;;;;;;4969918;28;20337;-87
2022/07/18 06:15:10;;;;;;;5.33;2.30;;;16.90;70.80;;;;;;4985424;28;20026;-87
2022/07/18 06:17:36;;;;;;;5.80;2.05;;;16.90;70.40;;;;;;4952839;28;20105;-87
2022/07/18 06:20:07;;;;;;;3.90;2.33;;;17.00;70.60;;;;;;4954123;28;20026;-87
2022/07/18 06:22:34;;;;;;;5.93;1.90;;;17.00;71.20;;;;;;4973181;28;20034;-87
2022/07/18 06:25:01;;;;;;;6.63;2.58;;;17.10;70.80;;;;;;4973173;28;20018;-86
2022/07/18 06:27:29;;;;;;;4.85;2.88;;;17.20;72.80;;;;;;4971466;28;20054;-87
2022/07/18 06:29:55;;;;;;;7.03;2.67;;;17.30;73.80;;;;;;4968123;29;20030;-87
2022/07/18 06:32:20;;;;;;;7.00;2.80;;;17.40;74.70;;;;;;4969176;29;20039;-86
2022/07/18 06:34:46;;;;;;;7.77;2.70;;;17.40;75.10;;;;;;4970018;29;20038;-85
2022/07/18 06:37:12;;;;;;;5.53;2.07;;;17.50;75.90;;;;;;4951361;29;20267;-87
2022/07/18 06:39:38;;;;;;;5.53;2.17;;;17.60;76.30;;;;;;4968738;29;20326;-88
2022/07/18 06:42:03;;;;;;;9.73;3.10;;;17.70;76.50;;;;;;4936049;29;20031;-88
2022/07/18 06:44:29;;;;;;;6.47;2.10;;;17.70;76.10;;;;;;4967843;29;20042;-87
2022/07/18 06:46:57;;;;;;;7.00;2.20;;;17.80;70.20;;;;;;4951748;29;20082;-88
2022/07/18 06:49:22;;;;;;;5.15;1.63;;;18.00;66.80;;;;;;4967872;29;20337;-88
2022/07/18 06:51:48;;;;;;;4.60;1.70;;;18.00;66.20;;;;;;4970164;28;20022;-87
2022/07/18 06:54:14;;;;;;;5.63;1.97;;;18.20;66.30;;;;;;4987553;28;20017;-88
2022/07/18 06:56:40;;;;;;;3.57;1.63;;;18.30;65.60;;;;;;4971013;28;20019;-87
2022/07/18 06:59:06;;;;;;;5.35;1.27;;;18.30;67.50;;;;;;4970555;28;20018;-88
2022/07/18 07:01:31;;;;;;;12.60;2.50;;;18.40;68.30;;;;;;4986122;28;20036;-88
2022/07/18 07:03:57;;;;;;;7.47;2.70;;;18.50;63.20;;;;;;4986042;28;20337;-88
2022/07/18 07:06:23;;;;;;;8.90;2.27;;;18.60;61.20;;;;;;4969906;28;20035;-88
2022/07/18 07:08:49;;;;;;;6.27;1.77;;;18.70;59.90;;;;;;4954473;28;20037;-88
2022/07/18 07:11:15;;;;;;;8.20;3.50;;;18.90;59.80;;;;;;4986214;28;20034;-88
2022/07/18 07:13:40;;;;;;;6.37;2.93;;;19.00;59.60;;;;;;4969424;28;20061;-87
2022/07/18 07:16:06;;;;;;;3.63;1.70;;;19.10;59.20;;;;;;4969883;28;20341;-88
2022/07/18 07:18:32;;;;;;;4.90;1.80;;;19.20;59.60;;;;;;4969783;28;20224;-88
2022/07/18 07:20:58;;;;;;;5.23;1.63;;;19.30;58.50;;;;;;4970468;28;20380;-88
2022/07/18 07:23:24;;;;;;;2.60;1.38;;;19.40;58.20;;;;;;4953646;28;20027;-87
2022/07/18 07:25:49;;;;;;;2.27;1.33;;;19.40;58.50;;;;;;4952491;28;20027;-88
2022/07/18 07:28:15;;;;;;;3.07;1.70;;;19.50;57.70;;;;;;4985940;28;20038;-88
2022/07/18 07:30:42;;;;;;;2.50;1.57;;;19.60;58.00;;;;;;4969875;28;20027;-88
2022/07/18 07:33:09;;;;;;;7.30;1.55;;;19.70;57.10;;;;;;4968723;28;20030;-88
2022/07/18 07:35:34;;;;;;;5.65;1.92;;;19.80;56.60;;;;;;4986225;28;20340;-88
2022/07/18 07:38:00;;;;;;;10.50;2.63;;;20.00;56.70;;;;;;4985964;28;20058;-88
2022/07/18 07:40:28;;;;;;;3.33;1.77;;;20.00;56.70;;;;;;4985983;28;20273;-88
2022/07/18 07:43:08;;;;;;;4.90;1.70;;;20.10;57.30;;;;;;4985362;28;20048;-87
2022/07/18 07:45:34;;;;;;;1.92;1.38;;;20.20;57.70;;;;;;4985503;28;20039;-88
2022/07/18 07:47:59;;;;;;;2.17;1.47;;;20.20;57.70;;;;;;4985269;28;20127;-87
2022/07/18 07:50:25;;;;;;;4.87;1.40;;;20.20;56.80;;;;;;4985451;28;20030;-87
2022/07/18 07:52:51;;;;;;;3.43;2.13;;;20.30;55.00;;;;;;4968945;28;20026;-87
2022/07/18 07:55:17;;;;;;;2.43;1.43;;;20.40;55.50;;;;;;4985469;28;20023;-87
2022/07/18 07:57:42;;;;;;;4.37;1.77;;;20.50;56.70;;;;;;4984597;28;20103;-87
2022/07/18 08:00:09;;;;;;;6.07;2.10;;;20.50;57.20;;;;;;4984913;28;20233;-86
2022/07/18 08:02:35;;;;;;;8.10;2.08;;;20.60;57.50;;;;;;4968439;28;20074;-85
2022/07/18 08:05:01;;;;;;;5.55;1.45;;;20.70;56.30;;;;;;4984810;28;20033;-85
2022/07/18 08:07:27;;;;;;;5.32;2.28;;;20.80;56.90;;;;;;4952925;28;20022;-85
2022/07/18 08:09:53;;;;;;;7.33;1.90;;;20.90;56.20;;;;;;4985024;28;20026;-86
2022/07/18 08:12:19;;;;;;;3.07;2.03;;;21.00;55.60;;;;;;4984684;28;20026;-85
2022/07/18 08:14:44;;;;;;;4.83;1.87;;;21.10;55.70;;;;;;4984608;28;20323;-85
2022/07/18 08:17:10;;;;;;;3.50;1.40;;;21.20;55.40;;;;;;4985995;28;20027;-85
2022/07/18 08:19:36;;;;;;;2.37;1.87;;;21.20;55.90;;;;;;4985125;28;20066;-86
2022/07/18 08:22:02;;;;;;;3.53;1.63;;;21.30;56.00;;;;;;4970888;28;20031;-86
2022/07/18 08:24:28;;;;;;;5.97;1.80;;;21.30;56.50;;;;;;4986121;28;20308;-85
2022/07/18 08:26:54;;;;;;;2.60;1.52;;;21.30;54.00;;;;;;4970863;28;20037;-86
2022/07/18 08:29:19;;;;;;;5.70;1.63;;;21.40;55.10;;;;;;4969327;28;20027;-86
2022/07/18 08:31:45;;;;;;;4.10;2.30;;;21.50;51.10;;;;;;4985251;28;20077;-86
2022/07/18 08:34:11;;;;;;;3.47;1.87;;;21.60;50.70;;;;;;5011646;22;20046;-74
2022/07/18 08:36:36;;;;;;;3.43;1.87;;;21.70;51.00;;;;;;5002548;28;20090;-75
2022/07/18 08:39:02;;;;;;;4.97;1.60;;;21.70;51.30;;;;;;4985694;28;20083;-75
2022/07/18 08:41:28;;;;;;;5.13;1.70;;;21.80;51.90;;;;;;5003431;28;20022;-75
2022/07/18 08:43:54;;;;;;;4.27;1.70;;;21.80;52.80;;;;;;4976843;28;20030;-74
2022/07/18 08:46:21;;;;;;;2.67;1.52;;;22.00;51.50;;;;;;4917818;29;20351;-74
2022/07/18 08:48:51;;;;;;;4.22;1.98;;;22.10;52.10;;;;;;4946363;29;20090;-74
2022/07/18 08:51:17;;;;;;;3.65;1.40;;;22.20;50.10;;;;;;4947043;29;20195;-74
2022/07/18 08:53:43;;;;;;;5.90;1.70;;;22.30;49.90;;;;;;4946170;29;20356;-74
2022/07/18 08:56:09;;;;;;;6.33;1.73;;;22.40;50.40;;;;;;4946476;29;20099;-75
2022/07/18 08:58:35;;;;;;;4.67;1.97;;;22.50;50.50;;;;;;4962190;28;20058;-74
2022/07/18 09:01:01;;;;;;;4.68;1.63;;;22.60;51.30;;;;;;4962168;29;20023;-74
2022/07/18 09:03:27;;;;;;;6.22;1.85;;;22.60;51.00;;;;;;4965342;28;20056;-74
2022/07/18 09:06:12;;;;;;;3.88;1.80;;;22.70;51.00;;;;;;4982545;28;20027;-74
2022/07/18 09:08:40;;;;;;;3.88;1.58;;;22.70;51.30;;;;;;4981188;28;20356;-74
2022/07/18 09:11:10;;;;;;;4.43;1.40;;;22.70;51.20;;;;;;4965344;28;20098;-74
2022/07/18 09:13:39;;;;;;;2.75;1.33;;;22.80;51.40;;;;;;4964873;28;20153;-74
2022/07/18 09:16:10;;;;;;;5.20;1.55;;;22.80;51.40;;;;;;4965223;28;20030;-74
2022/07/18 09:18:40;;;;;;;3.65;1.67;;;22.90;49.40;;;;;;4981198;28;20018;-74
2022/07/18 09:21:12;;;;;;;3.65;1.75;;;23.00;49.50;;;;;;4981366;28;20026;-75
2022/07/18 09:23:40;;;;;;;5.07;1.60;;;23.10;49.60;;;;;;4981054;28;20058;-74
2022/07/18 09:26:07;;;;;;;4.30;1.48;;;23.20;49.40;;;;;;4965385;28;20033;-74
2022/07/18 09:28:53;;;;;;;8.02;1.75;;;23.20;48.60;;;;;;4981406;28;20051;-74
2022/07/18 09:31:26;;;;;;;6.55;2.03;;;23.30;48.70;;;;;;4981758;28;20031;-74
2022/07/18 09:33:59;;;;;;;3.53;1.90;;;23.40;49.20;;;;;;4965160;28;20035;-74
2022/07/18 09:36:25;;;;;;;6.43;1.80;;;23.40;48.60;;;;;;4965572;28;20159;-74
2022/07/18 09:38:51;;;;;;;3.67;1.23;;;23.40;48.90;;;;;;4981509;28;20033;-73
2022/07/18 09:41:30;;;;;;;2.88;1.40;;;23.50;48.20;;;;;;4981258;28;20030;-75
2022/07/18 09:43:55;;;;;;;6.32;2.28;;;23.60;48.30;;;;;;4981068;28;20109;-74
2022/07/18 09:46:21;;;;;;;3.25;1.80;;;23.70;47.10;;;;;;4982358;28;20326;-75
2022/07/18 09:48:47;;;;;;;3.83;1.63;;;23.90;46.20;;;;;;4981044;28;20054;-74
2022/07/18 09:51:13;;;;;;;3.58;1.40;;;24.20;44.10;;;;;;4981258;28;20199;-74
2022/07/18 09:53:43;;;;;;;2.10;1.40;;;24.40;43.40;;;;;;4980896;28;20033;-75
2022/07/18 09:56:23;;;;;;;3.50;1.67;;;24.50;43.70;;;;;;4982751;28;20246;-74
2022/07/18 09:58:54;;;;;;;1.65;1.10;;;24.50;45.40;;;;;;4984869;28;20034;-73
2022/07/18 10:01:20;;;;;;;3.90;1.42;;;24.60;43.70;;;;;;4984811;28;20026;-74
2022/07/18 10:03:46;;;;;;;3.50;1.30;;;24.60;44.00;;;;;;4967854;28;20076;-74
2022/07/18 10:06:12;;;;;;;2.00;1.20;;;24.70;44.20;;;;;;4984740;28;20030;-74
2022/07/18 10:08:38;;;;;;;2.03;1.20;;;24.80;44.10;;;;;;4952594;28;20034;-74
2022/07/18 10:11:05;;;;;;;2.47;1.30;;;24.80;43.90;;;;;;4984696;28;20019;-74
2022/07/18 10:13:32;;;;;;;2.05;1.30;;;24.80;43.90;;;;;;4968397;28;20280;-76
2022/07/18 10:15:59;;;;;;;5.80;1.35;;;24.80;43.50;;;;;;4985672;28;20022;-74
2022/07/18 10:18:27;;;;;;;2.35;1.05;;;24.80;44.10;;;;;;4984305;28;20034;-74
2022/07/18 10:21:04;;;;;;;2.58;1.30;;;24.90;42.80;;;;;;4984349;28;20055;-74
2022/07/18 10:23:38;;;;;;;2.63;1.02;;;25.00;42.00;;;;;;4984147;28;20030;-74
2022/07/18 10:26:17;;;;;;;7.45;1.38;;;25.00;42.50;;;;;;4984278;28;20026;-74
2022/07/18 10:28:55;;;;;;;6.10;1.20;;;25.20;42.60;;;;;;4984279;28;20023;-74
2022/07/18 10:31:58;;;;;;;2.55;1.23;;;25.30;42.10;;;;;;5000255;28;20026;-74
2022/07/18 10:34:31;;;;;;;2.38;1.40;;;25.30;40.50;;;;;;4958663;29;20027;-74
2022/07/18 10:37:00;;;;;;;1.80;1.20;;;25.50;41.70;;;;;;4949559;29;20053;-74
2022/07/18 10:39:49;;;;;;;5.60;1.65;;;25.60;40.00;;;;;;4973930;28;20102;-74
2022/07/18 10:42:18;;;;;;;3.13;1.10;;;25.70;41.10;;;;;;4952426;29;20043;-74
2022/07/18 10:44:44;;;;;;;2.63;1.30;;;25.80;41.40;;;;;;4969806;28;20035;-74
2022/07/18 10:47:17;;;;;;;4.65;1.45;;;25.80;41.00;;;;;;4968061;28;20121;-74
2022/07/18 10:49:48;;;;;;;3.05;1.10;;;25.80;40.80;;;;;;4984105;28;20030;-74
2022/07/18 10:52:46;;;;;;;2.60;1.00;;;26.00;40.70;;;;;;4985412;28;20046;-74
2022/07/18 10:55:24;;;;;;;2.53;0.93;;;26.10;40.10;;;;;;4985089;28;20471;-74
2022/07/18 10:57:49;;;;;;;5.20;1.10;;;26.30;39.40;;;;;;4983909;28;20266;-74
2022/07/18 11:00:33;;;;;;;5.73;1.10;;;26.40;40.10;;;;;;4985103;28;20241;-74
2022/07/18 11:03:12;;;;;;;3.45;1.20;;;26.50;39.60;;;;;;4951442;28;20050;-74
2022/07/18 11:05:52;;;;;;;1.88;1.10;;;26.70;40.60;;;;;;4983757;28;20038;-74
2022/07/18 11:08:19;;;;;;;2.22;1.08;;;26.80;40.90;;;;;;4982880;28;20101;-74
2022/07/18 11:10:50;;;;;;;2.13;1.10;;;26.90;40.90;;;;;;4983810;28;20030;-74
2022/07/18 11:13:31;;;;;;;1.10;0.95;;;26.90;40.60;;;;;;4984175;28;20022;-74
2022/07/18 11:15:58;;;;;;;2.60;0.82;;;26.90;40.20;;;;;;4984678;28;20022;-74
2022/07/18 11:18:24;;;;;;;2.72;1.08;;;27.00;40.20;;;;;;4983339;28;20023;-74
2022/07/18 11:20:50;;;;;;;1.38;0.82;;;27.00;39.70;;;;;;4983382;28;20027;-74
2022/07/18 11:23:24;;;;;;;2.60;0.80;;;27.10;39.00;;;;;;4984144;28;20363;-74
2022/07/18 11:25:56;;;;;;;2.58;1.38;;;27.20;39.90;;;;;;4983468;28;20297;-74
2022/07/18 11:28:21;;;;;;;0.63;0.63;;;27.30;39.40;;;;;;4983336;28;20182;-74
2022/07/18 11:31:00;;;;;;;2.08;0.80;;;27.40;37.80;;;;;;4982448;28;20098;-74
2022/07/18 11:33:28;;;;;;;1.40;1.20;;;27.60;39.40;;;;;;4982683;28;20027;-74
2022/07/18 11:36:08;;;;;;;3.05;1.23;;;27.70;38.70;;;;;;4951249;28;20070;-74
2022/07/18 11:38:35;;;;;;;0.90;0.73;;;27.80;38.20;;;;;;4983168;28;20027;-74
2022/07/18 11:41:01;;;;;;;1.20;0.73;;;27.90;38.90;;;;;;4983040;28;20046;-74
2022/07/18 11:43:27;;;;;;;1.98;0.93;;;28.00;39.20;;;;;;4966620;28;20030;-74
2022/07/18 11:46:02;;;;;;;2.33;1.23;;;28.00;37.20;;;;;;4982813;28;20112;-74
2022/07/18 11:48:28;;;;;;;1.33;0.98;;;28.10;40.00;;;;;;4983707;28;20333;-74
2022/07/18 11:50:54;;;;;;;0.90;0.75;;;28.20;36.90;;;;;;4984106;28;20033;-74
2022/07/18 11:53:19;;;;;;;2.50;0.73;;;28.30;38.60;;;;;;4966604;28;20031;-74
2022/07/18 11:55:45;;;;;;;4.93;2.53;;;28.40;39.70;;;;;;4982751;28;20023;-74
2022/07/18 11:58:13;;;;;;;2.67;1.40;;;28.50;38.20;;;;;;4983971;28;20035;-74
2022/07/18 12:00:40;;;;;;;2.78;1.15;;;28.70;37.70;;;;;;4982458;28;20336;-75
2022/07/18 12:03:10;;;;;;;1.08;0.90;;;28.90;38.90;;;;;;4950344;28;20027;-74
2022/07/18 12:05:42;;;;;;;1.92;0.95;;;29.10;36.60;;;;;;4982689;28;20278;-74
2022/07/18 12:08:29;;;;;;;2.15;0.75;;;29.30;39.00;;;;;;4967172;28;20031;-74
2022/07/18 12:11:12;;;;;;;2.50;0.70;;;29.40;40.70;;;;;;4983778;28;20054;-74
2022/07/18 12:13:46;;;;;;;0.80;0.70;;;29.50;35.70;;;;;;4982061;28;20023;-74
2022/07/18 12:16:31;;;;;;;2.00;0.70;;;29.70;35.80;;;;;;4982234;28;20046;-74
2022/07/18 12:19:11;;;;;;;3.10;0.80;;;29.80;35.70;;;;;;4965145;28;20191;-75
2022/07/18 12:21:44;;;;;;;0.70;0.70;;;29.90;36.40;;;;;;4982269;28;20049;-75
2022/07/18 12:24:41;;;;;;;2.28;1.05;;;30.00;35.70;;;;;;4982870;28;20015;-75
2022/07/18 12:27:33;;;;;;;0.70;0.60;;;30.20;37.10;;;;;;4967259;28;20041;-74
2022/07/18 12:30:28;;;;;;;1.33;0.70;;;30.40;36.30;;;;;;4959432;29;20043;-74
2022/07/18 12:32:56;;;;;;;2.30;0.90;;;30.60;35.60;;;;;;4962260;28;20356;-75
2022/07/18 12:35:35;;;;;;;1.75;1.00;;;30.80;36.20;;;;;;4930970;29;20054;-74
2022/07/18 12:38:11;;;;;;;1.92;1.05;;;31.00;37.00;;;;;;4931483;29;20074;-75
2022/07/18 12:40:52;;;;;;;1.90;1.13;;;31.20;37.30;;;;;;4947421;29;20034;-75
2022/07/18 12:43:27;;;;;;;3.80;1.25;;;31.40;37.10;;;;;;4963386;28;20023;-76
2022/07/18 12:45:55;;;;;;;1.37;1.00;;;31.60;35.60;;;;;;4962535;29;20015;-74
2022/07/18 12:48:21;;;;;;;1.38;0.98;;;31.80;38.40;;;;;;4930755;29;20094;-75
2022/07/18 12:51:00;;;;;;;1.77;1.02;;;31.90;35.00;;;;;;4930714;29;20321;-74
2022/07/18 12:53:27;;;;;;;4.97;0.82;;;32.10;39.90;;;;;;4948711;28;20094;-75
2022/07/18 12:55:55;;;;;;;1.52;0.82;;;32.20;35.50;;;;;;4930821;29;20026;-74